createdAt,value
2023-03-31T00:00:33.437Z,991.31
2023-03-31T00:01:33.414Z,991.30
2023-03-31T00:02:33.546Z,991.32
2023-03-31T00:03:33.559Z,991.29
2023-03-31T00:04:33.441Z,991.28
2023-03-31T00:05:33.380Z,991.24
2023-03-31T00:06:33.419Z,991.28
2023-03-31T00:07:33.357Z,991.18
2023-03-31T00:08:33.351Z,991.18
2023-03-31T00:09:33.348Z,991.16
2023-03-31T00:10:33.313Z,991.12
2023-03-31T00:11:33.305Z,991.08
2023-03-31T00:12:33.298Z,991.09
2023-03-31T00:13:33.277Z,991.06
2023-03-31T00:14:33.292Z,991.06
2023-03-31T00:15:33.261Z,991.00
2023-03-31T00:16:33.302Z,990.98
2023-03-31T00:17:33.373Z,990.94
2023-03-31T00:18:33.244Z,990.93
2023-03-31T00:19:33.213Z,990.90
2023-03-31T00:20:33.202Z,990.89
2023-03-31T00:21:33.203Z,990.90
2023-03-31T00:22:33.216Z,990.83
2023-03-31T00:23:33.176Z,990.80
2023-03-31T00:24:33.296Z,990.82
2023-03-31T00:25:33.148Z,990.80
2023-03-31T00:26:33.158Z,990.82
2023-03-31T00:27:33.129Z,990.73
2023-03-31T00:28:33.121Z,990.76
2023-03-31T00:29:33.101Z,990.66
2023-03-31T00:30:33.117Z,990.69
2023-03-31T00:31:33.106Z,990.67
2023-03-31T00:32:33.135Z,990.65
2023-03-31T00:33:33.062Z,990.61
2023-03-31T00:34:33.061Z,990.60
2023-03-31T00:35:33.045Z,990.60
2023-03-31T00:36:33.058Z,990.51
2023-03-31T00:37:33.010Z,990.53
2023-03-31T00:38:33.033Z,990.48
2023-03-31T00:39:32.988Z,990.49
2023-03-31T00:40:32.988Z,990.48
2023-03-31T00:41:33.012Z,990.44
2023-03-31T00:42:32.968Z,990.40
2023-03-31T00:43:32.975Z,990.39
2023-03-31T00:44:32.941Z,990.44
2023-03-31T00:45:32.999Z,990.38
2023-03-31T00:46:32.917Z,990.45
2023-03-31T00:47:33.004Z,990.33
2023-03-31T00:48:32.915Z,990.33
2023-03-31T00:49:32.910Z,990.31
2023-03-31T00:50:32.879Z,990.38
2023-03-31T00:51:32.858Z,990.37
2023-03-31T00:52:32.848Z,990.28
2023-03-31T00:53:32.841Z,990.32
2023-03-31T00:54:32.889Z,990.27
2023-03-31T00:55:32.818Z,990.30
2023-03-31T00:56:32.807Z,990.23
2023-03-31T00:57:32.792Z,990.17
2023-03-31T00:58:32.815Z,990.23
2023-03-31T00:59:32.772Z,990.15
2023-03-31T01:00:32.799Z,990.14
2023-03-31T01:01:32.783Z,990.07
2023-03-31T01:02:32.807Z,990.01
2023-03-31T01:03:32.774Z,990.06
2023-03-31T01:04:32.724Z,989.97
2023-03-31T01:05:32.723Z,990.00
2023-03-31T01:06:32.711Z,989.93
2023-03-31T01:07:32.689Z,989.95
2023-03-31T01:08:32.676Z,989.93
2023-03-31T01:09:32.662Z,989.91
2023-03-31T01:10:32.670Z,989.86
2023-03-31T01:11:32.666Z,989.81
2023-03-31T01:12:32.647Z,989.86
2023-03-31T01:13:32.621Z,989.86
2023-03-31T01:14:32.619Z,989.83
2023-03-31T01:15:32.604Z,989.83
2023-03-31T01:16:32.641Z,989.79
2023-03-31T01:17:32.729Z,989.81
2023-03-31T01:18:32.652Z,989.77
2023-03-31T01:19:32.573Z,989.81
2023-03-31T01:20:32.547Z,989.72
2023-03-31T01:21:32.545Z,989.74
2023-03-31T01:22:32.567Z,989.70
2023-03-31T01:23:32.506Z,989.70
2023-03-31T01:24:32.512Z,989.75
2023-03-31T01:25:32.507Z,989.75
2023-03-31T01:26:32.501Z,989.75
2023-03-31T01:27:32.481Z,989.75
2023-03-31T01:28:32.459Z,989.70
2023-03-31T01:29:32.450Z,989.67
2023-03-31T01:30:32.442Z,989.69
2023-03-31T01:31:32.505Z,989.65
2023-03-31T01:32:32.457Z,989.60
2023-03-31T01:33:32.433Z,989.55
2023-03-31T01:34:32.394Z,989.58
2023-03-31T01:35:32.428Z,989.57
2023-03-31T01:36:32.381Z,989.56
2023-03-31T01:37:32.359Z,989.58
2023-03-31T01:38:32.362Z,989.57
2023-03-31T01:39:32.363Z,989.54
2023-03-31T01:40:32.336Z,989.51
2023-03-31T01:41:32.339Z,989.58
2023-03-31T01:42:32.331Z,989.54
2023-03-31T01:43:32.306Z,989.49
2023-03-31T01:44:32.289Z,989.46
2023-03-31T01:45:32.281Z,989.47
2023-03-31T01:46:32.283Z,989.44
2023-03-31T01:47:32.273Z,989.47
2023-03-31T01:48:32.248Z,989.44
2023-03-31T01:49:32.260Z,989.42
2023-03-31T01:50:32.218Z,989.40
2023-03-31T01:51:32.217Z,989.35
2023-03-31T01:52:32.231Z,989.36
2023-03-31T01:53:32.199Z,989.30
2023-03-31T01:54:32.181Z,989.33
2023-03-31T01:55:32.168Z,989.33
2023-03-31T01:56:32.154Z,989.31
2023-03-31T01:57:32.183Z,989.29
2023-03-31T01:58:32.148Z,989.33
2023-03-31T01:59:32.125Z,989.24
2023-03-31T02:00:32.125Z,989.22
2023-03-31T02:01:32.126Z,989.20
2023-03-31T02:02:32.180Z,989.19
2023-03-31T02:03:32.133Z,989.22
2023-03-31T02:04:32.061Z,989.18
2023-03-31T02:05:32.056Z,989.17
2023-03-31T02:06:32.063Z,989.14
2023-03-31T02:07:32.051Z,989.18
2023-03-31T02:08:32.041Z,989.12
2023-03-31T02:09:32.016Z,989.08
2023-03-31T02:10:32.002Z,989.03
2023-03-31T02:11:31.993Z,989.00
2023-03-31T02:12:32.002Z,988.98
2023-03-31T02:13:31.985Z,988.95
2023-03-31T02:14:31.973Z,988.89
2023-03-31T02:15:31.974Z,988.89
2023-03-31T02:16:32.054Z,988.86
2023-03-31T02:17:31.994Z,988.80
2023-03-31T02:18:31.927Z,988.79
2023-03-31T02:19:31.902Z,988.82
2023-03-31T02:20:31.888Z,988.75
2023-03-31T02:21:31.898Z,988.72
2023-03-31T02:22:31.917Z,988.75
2023-03-31T02:23:31.922Z,988.65
2023-03-31T02:24:31.867Z,988.60
2023-03-31T02:25:31.851Z,988.53
2023-03-31T02:26:31.845Z,988.47
2023-03-31T02:27:31.813Z,988.49
2023-03-31T02:28:31.797Z,988.43
2023-03-31T02:29:31.842Z,988.41
2023-03-31T02:30:31.815Z,988.34
2023-03-31T02:31:31.805Z,988.33
2023-03-31T02:32:31.780Z,988.23
2023-03-31T02:33:31.747Z,988.19
2023-03-31T02:34:31.732Z,988.15
2023-03-31T02:35:31.751Z,988.14
2023-03-31T02:36:31.731Z,988.13
2023-03-31T02:37:31.719Z,988.15
2023-03-31T02:38:31.690Z,988.06
2023-03-31T02:39:31.679Z,988.08
2023-03-31T02:40:31.678Z,988.00
2023-03-31T02:41:31.671Z,987.94
2023-03-31T02:42:31.660Z,987.91
2023-03-31T02:43:31.661Z,987.86
2023-03-31T02:44:31.655Z,987.98
2023-03-31T02:45:31.643Z,988.09
2023-03-31T02:46:31.683Z,988.12
2023-03-31T02:47:31.609Z,988.07
2023-03-31T02:48:31.619Z,987.96
2023-03-31T02:49:31.589Z,987.74
2023-03-31T02:50:33.210Z,987.68
2023-03-31T02:51:31.553Z,987.60
2023-03-31T02:52:31.578Z,987.56
2023-03-31T02:53:31.531Z,987.50
2023-03-31T02:54:31.535Z,987.42
2023-03-31T02:55:31.540Z,987.45
2023-03-31T02:56:31.494Z,987.43
2023-03-31T02:57:31.486Z,987.41
2023-03-31T02:58:31.470Z,987.38
2023-03-31T02:59:31.479Z,987.32
2023-03-31T03:00:31.488Z,987.25
2023-03-31T03:01:31.503Z,987.27
2023-03-31T03:02:31.576Z,987.23
2023-03-31T03:03:31.472Z,987.20
2023-03-31T03:04:31.431Z,987.20
2023-03-31T03:05:31.400Z,987.20
2023-03-31T03:06:31.399Z,987.20
2023-03-31T03:07:31.399Z,987.15
2023-03-31T03:08:31.381Z,987.11
2023-03-31T03:09:31.372Z,987.10
2023-03-31T03:10:31.345Z,987.11
2023-03-31T03:11:31.350Z,987.06
2023-03-31T03:12:31.339Z,987.02
2023-03-31T03:13:31.319Z,986.94
2023-03-31T03:14:31.310Z,986.90
2023-03-31T03:15:31.309Z,986.92
2023-03-31T03:16:31.290Z,986.90
2023-03-31T03:17:31.290Z,987.01
2023-03-31T03:18:31.286Z,987.07
2023-03-31T03:19:31.262Z,987.12
2023-03-31T03:20:31.230Z,987.13
2023-03-31T03:21:31.235Z,987.18
2023-03-31T03:22:31.218Z,987.20
2023-03-31T03:23:31.205Z,987.26
2023-03-31T03:24:31.223Z,987.21
2023-03-31T03:25:31.191Z,987.18
2023-03-31T03:26:31.172Z,987.14
2023-03-31T03:27:31.176Z,987.03
2023-03-31T03:28:31.144Z,986.94
2023-03-31T03:29:31.141Z,986.87
2023-03-31T03:30:31.136Z,986.79
2023-03-31T03:31:31.133Z,986.81
2023-03-31T03:32:31.141Z,986.83
2023-03-31T03:33:31.094Z,986.80
2023-03-31T03:34:31.124Z,986.82
2023-03-31T03:35:31.106Z,986.73
2023-03-31T03:36:31.085Z,986.71
2023-03-31T03:37:31.047Z,986.70
2023-03-31T03:38:31.035Z,986.71
2023-03-31T03:39:31.045Z,986.70
2023-03-31T03:40:31.015Z,986.59
2023-03-31T03:41:31.023Z,986.63
2023-03-31T03:42:31.001Z,986.61
2023-03-31T03:43:30.988Z,986.60
2023-03-31T03:44:30.970Z,986.60
2023-03-31T03:45:30.982Z,986.62
2023-03-31T03:46:31.004Z,986.60
2023-03-31T03:47:30.975Z,986.65
2023-03-31T03:48:30.968Z,986.64
2023-03-31T03:49:30.923Z,986.62
2023-03-31T03:50:30.928Z,986.62
2023-03-31T03:51:30.924Z,986.63
2023-03-31T03:52:30.887Z,986.57
2023-03-31T03:53:30.888Z,986.54
2023-03-31T03:54:30.885Z,986.57
2023-03-31T03:55:30.864Z,986.56
2023-03-31T03:56:30.835Z,986.55
2023-03-31T03:57:30.899Z,986.57
2023-03-31T03:58:30.819Z,986.55
2023-03-31T03:59:30.809Z,986.58
2023-03-31T04:00:30.822Z,986.50
2023-03-31T04:01:30.782Z,986.52
2023-03-31T04:02:30.889Z,986.46
2023-03-31T04:03:30.829Z,986.43
2023-03-31T04:04:30.829Z,986.42
2023-03-31T04:05:30.830Z,986.38
2023-03-31T04:06:30.754Z,986.40
2023-03-31T04:07:30.738Z,986.37
2023-03-31T04:08:30.737Z,986.35
2023-03-31T04:09:30.694Z,986.37
2023-03-31T04:10:30.710Z,986.36
2023-03-31T04:11:30.687Z,986.32
2023-03-31T04:12:30.685Z,986.25
2023-03-31T04:13:30.689Z,986.23
2023-03-31T04:14:30.646Z,986.21
2023-03-31T04:15:30.653Z,986.16
2023-03-31T04:16:30.647Z,986.20
2023-03-31T04:17:30.661Z,986.23
2023-03-31T04:18:30.615Z,986.23
2023-03-31T04:19:30.599Z,986.23
2023-03-31T04:20:30.584Z,986.20
2023-03-31T04:21:30.559Z,986.17
2023-03-31T04:22:30.620Z,986.10
2023-03-31T04:23:30.546Z,986.14
2023-03-31T04:24:30.540Z,986.03
2023-03-31T04:25:30.576Z,985.98
2023-03-31T04:26:30.502Z,985.95
2023-03-31T04:27:30.512Z,985.84
2023-03-31T04:28:31.122Z,985.81
2023-03-31T04:29:30.483Z,985.76
2023-03-31T04:30:30.479Z,985.66
2023-03-31T04:31:30.545Z,985.70
2023-03-31T04:32:30.500Z,985.70
2023-03-31T04:33:30.432Z,985.64
2023-03-31T04:34:30.418Z,985.65
2023-03-31T04:35:30.434Z,985.66
2023-03-31T04:36:30.419Z,985.63
2023-03-31T04:37:30.390Z,985.71
2023-03-31T04:38:30.421Z,985.64
2023-03-31T04:39:30.369Z,985.52
2023-03-31T04:40:30.355Z,985.41
2023-03-31T04:41:30.344Z,985.39
2023-03-31T04:42:30.342Z,985.25
2023-03-31T04:43:30.333Z,985.29
2023-03-31T04:44:30.298Z,985.22
2023-03-31T04:45:30.359Z,985.10
2023-03-31T04:46:30.374Z,985.06
2023-03-31T04:47:30.343Z,984.99
2023-03-31T04:48:30.277Z,984.95
2023-03-31T04:49:30.268Z,984.89
2023-03-31T04:50:30.268Z,984.88
2023-03-31T04:51:30.233Z,984.89
2023-03-31T04:52:30.238Z,984.83
2023-03-31T04:53:30.215Z,984.80
2023-03-31T04:54:30.253Z,984.76
2023-03-31T04:55:30.199Z,984.69
2023-03-31T04:56:30.188Z,984.63
2023-03-31T04:57:30.264Z,984.71
2023-03-31T04:58:30.152Z,984.64
2023-03-31T04:59:30.169Z,984.65
2023-03-31T05:00:30.123Z,984.60
2023-03-31T05:01:30.159Z,984.60
2023-03-31T05:02:30.209Z,984.47
2023-03-31T05:03:30.322Z,984.60
2023-03-31T05:04:30.114Z,984.48
2023-03-31T05:05:30.088Z,984.59
2023-03-31T05:06:30.083Z,984.60
2023-03-31T05:07:30.075Z,984.40
2023-03-31T05:08:30.072Z,984.49
2023-03-31T05:09:30.032Z,984.37
2023-03-31T05:10:30.060Z,984.40
2023-03-31T05:11:30.050Z,984.41
2023-03-31T05:12:30.021Z,984.29
2023-03-31T05:13:30.012Z,984.32
2023-03-31T05:14:29.986Z,984.33
2023-03-31T05:15:29.993Z,984.15
2023-03-31T05:16:30.035Z,984.13
2023-03-31T05:17:29.968Z,984.09
2023-03-31T05:18:29.955Z,984.19
2023-03-31T05:19:29.945Z,984.06
2023-03-31T05:20:29.931Z,984.06
2023-03-31T05:21:29.937Z,984.11
2023-03-31T05:22:29.901Z,984.13
2023-03-31T05:23:29.909Z,984.13
2023-03-31T05:24:29.878Z,984.11
2023-03-31T05:25:29.886Z,984.13
2023-03-31T05:26:29.876Z,984.17
2023-03-31T05:27:29.858Z,984.11
2023-03-31T05:28:31.277Z,984.20
2023-03-31T05:29:29.865Z,984.22
2023-03-31T05:30:29.836Z,984.31
2023-03-31T05:31:29.844Z,984.06
2023-03-31T05:32:29.802Z,984.25
2023-03-31T05:33:29.783Z,984.13
2023-03-31T05:34:29.786Z,984.05
2023-03-31T05:35:29.761Z,984.14
2023-03-31T05:36:29.801Z,984.04
2023-03-31T05:37:29.753Z,984.09
2023-03-31T05:38:29.748Z,984.08
2023-03-31T05:39:29.717Z,984.03
2023-03-31T05:40:29.706Z,984.04
2023-03-31T05:41:29.702Z,984.04
2023-03-31T05:42:29.708Z,983.92
2023-03-31T05:43:29.703Z,983.97
2023-03-31T05:44:29.685Z,983.97
2023-03-31T05:45:29.665Z,984.07
2023-03-31T05:46:29.695Z,983.94
2023-03-31T05:47:29.733Z,983.89
2023-03-31T05:48:29.623Z,983.91
2023-03-31T05:49:29.639Z,983.87
2023-03-31T05:50:29.685Z,983.86
2023-03-31T05:51:29.624Z,983.84
2023-03-31T05:52:29.595Z,983.89
2023-03-31T05:53:29.556Z,983.90
2023-03-31T05:54:29.579Z,983.86
2023-03-31T05:55:30.442Z,983.81
2023-03-31T05:56:29.534Z,983.90
2023-03-31T05:57:29.586Z,983.93
2023-03-31T05:58:29.554Z,983.92
2023-03-31T05:59:29.521Z,983.86
2023-03-31T06:00:29.562Z,983.82
2023-03-31T06:01:29.596Z,983.81
2023-03-31T06:02:29.543Z,983.76
2023-03-31T06:03:29.475Z,983.87
2023-03-31T06:04:29.545Z,983.87
2023-03-31T06:05:29.459Z,983.87
2023-03-31T06:06:29.420Z,983.96
2023-03-31T06:07:29.445Z,983.88
2023-03-31T06:08:29.394Z,983.81
2023-03-31T06:09:29.389Z,983.78
2023-03-31T06:10:29.379Z,983.84
2023-03-31T06:11:29.378Z,983.70
2023-03-31T06:12:29.357Z,983.66
2023-03-31T06:13:29.356Z,983.67
2023-03-31T06:14:29.355Z,983.63
2023-03-31T06:15:29.315Z,983.67
2023-03-31T06:16:29.370Z,983.66
2023-03-31T06:17:29.301Z,983.63
2023-03-31T06:18:29.323Z,983.55
2023-03-31T06:19:29.289Z,983.56
2023-03-31T06:20:29.275Z,983.55
2023-03-31T06:21:29.249Z,983.56
2023-03-31T06:22:29.237Z,983.52
2023-03-31T06:23:29.255Z,983.53
2023-03-31T06:24:29.247Z,983.49
2023-03-31T06:25:34.561Z,983.51
2023-03-31T06:26:30.200Z,983.55
2023-03-31T06:27:29.184Z,983.53
2023-03-31T06:28:29.191Z,983.53
2023-03-31T06:29:29.162Z,983.51
2023-03-31T06:30:29.173Z,983.47
2023-03-31T06:31:29.156Z,983.45
2023-03-31T06:32:29.195Z,983.48
2023-03-31T06:33:29.156Z,983.48
2023-03-31T06:34:29.108Z,983.40
2023-03-31T06:35:29.105Z,983.41
2023-03-31T06:36:29.100Z,983.34
2023-03-31T06:37:29.127Z,983.35
2023-03-31T06:38:29.085Z,983.36
2023-03-31T06:39:29.074Z,983.37
2023-03-31T06:40:29.045Z,983.38
2023-03-31T06:41:29.023Z,983.34
2023-03-31T06:42:29.038Z,983.31
2023-03-31T06:43:29.036Z,983.28
2023-03-31T06:44:29.061Z,983.30
2023-03-31T06:45:29.025Z,983.28
2023-03-31T06:46:29.057Z,983.25
2023-03-31T06:47:28.974Z,983.27
2023-03-31T06:48:28.990Z,983.22
2023-03-31T06:49:29.132Z,983.20
2023-03-31T06:50:28.947Z,983.21
2023-03-31T06:51:30.621Z,983.19
2023-03-31T06:52:28.924Z,983.23
2023-03-31T06:53:28.905Z,983.18
2023-03-31T06:54:28.896Z,983.18
2023-03-31T06:55:28.884Z,983.15
2023-03-31T06:56:28.885Z,983.17
2023-03-31T06:57:28.958Z,983.13
2023-03-31T06:58:31.214Z,983.08
2023-03-31T06:59:28.834Z,983.13
2023-03-31T07:00:28.834Z,983.12
2023-03-31T07:01:28.880Z,983.05
2023-03-31T07:02:28.972Z,983.08
2023-03-31T07:03:28.908Z,983.03
2023-03-31T07:04:28.785Z,983.00
2023-03-31T07:05:28.786Z,982.99
2023-03-31T07:06:28.771Z,983.07
2023-03-31T07:07:28.788Z,983.01
2023-03-31T07:08:28.750Z,983.09
2023-03-31T07:09:28.718Z,983.08
2023-03-31T07:10:28.722Z,983.10
2023-03-31T07:11:28.698Z,983.09
2023-03-31T07:12:28.701Z,983.00
2023-03-31T07:13:28.730Z,983.04
2023-03-31T07:14:28.673Z,983.02
2023-03-31T07:15:28.657Z,983.04
2023-03-31T07:16:29.638Z,982.95
2023-03-31T07:17:28.666Z,982.97
2023-03-31T07:18:28.637Z,983.10
2023-03-31T07:19:28.649Z,983.07
2023-03-31T07:20:28.607Z,982.94
2023-03-31T07:21:28.591Z,982.94
2023-03-31T07:22:28.599Z,982.90
2023-03-31T07:23:28.568Z,982.87
2023-03-31T07:24:28.556Z,982.86
2023-03-31T07:25:28.556Z,982.96
2023-03-31T07:26:28.541Z,983.01
2023-03-31T07:27:28.551Z,983.06
2023-03-31T07:28:28.525Z,983.02
2023-03-31T07:29:28.505Z,983.02
2023-03-31T07:30:28.514Z,983.06
2023-03-31T07:31:28.513Z,983.08
2023-03-31T07:32:29.242Z,983.05
2023-03-31T07:33:28.477Z,982.98
2023-03-31T07:34:28.489Z,982.99
2023-03-31T07:35:28.448Z,982.97
2023-03-31T07:36:28.470Z,983.01
2023-03-31T07:37:28.427Z,983.06
2023-03-31T07:38:28.417Z,983.01
2023-03-31T07:39:28.412Z,982.95
2023-03-31T07:40:28.394Z,982.89
2023-03-31T07:41:28.379Z,982.95
2023-03-31T07:42:28.354Z,982.98
2023-03-31T07:43:28.388Z,982.95
2023-03-31T07:44:28.369Z,982.89
2023-03-31T07:45:28.328Z,982.89
2023-03-31T07:46:28.388Z,982.94
2023-03-31T07:47:30.216Z,982.98
2023-03-31T07:48:28.296Z,983.01
2023-03-31T07:49:28.338Z,982.97
2023-03-31T07:50:28.303Z,982.98
2023-03-31T07:51:28.302Z,983.05
2023-03-31T07:52:28.253Z,983.09
2023-03-31T07:53:28.241Z,983.08
2023-03-31T07:54:28.235Z,983.07
2023-03-31T07:55:28.227Z,982.97
2023-03-31T07:56:28.225Z,983.06
2023-03-31T07:57:28.258Z,983.10
2023-03-31T07:58:28.200Z,983.03
2023-03-31T07:59:28.196Z,983.11
2023-03-31T08:00:28.215Z,983.13
2023-03-31T08:01:28.165Z,983.09
2023-03-31T08:02:28.316Z,983.08
2023-03-31T08:03:28.131Z,983.10
2023-03-31T08:04:28.226Z,983.05
2023-03-31T08:05:28.142Z,982.95
2023-03-31T08:06:28.126Z,982.86
2023-03-31T08:07:28.097Z,982.83
2023-03-31T08:08:28.070Z,982.76
2023-03-31T08:09:28.065Z,982.83
2023-03-31T08:10:28.059Z,982.75
2023-03-31T08:11:28.053Z,982.79
2023-03-31T08:12:28.090Z,982.81
2023-03-31T08:13:28.043Z,982.76
2023-03-31T08:14:38.272Z,982.76
2023-03-31T08:15:29.003Z,982.64
2023-03-31T08:16:28.084Z,982.71
2023-03-31T08:17:28.024Z,982.76
2023-03-31T08:18:28.006Z,982.82
2023-03-31T08:19:27.966Z,982.75
2023-03-31T08:20:27.938Z,982.82
2023-03-31T08:21:27.932Z,982.80
2023-03-31T08:22:27.936Z,982.81
2023-03-31T08:23:27.913Z,982.84
2023-03-31T08:24:27.943Z,982.77
2023-03-31T08:25:27.883Z,982.81
2023-03-31T08:26:27.921Z,982.78
2023-03-31T08:27:27.869Z,982.88
2023-03-31T08:28:27.860Z,982.86
2023-03-31T08:29:27.836Z,982.81
2023-03-31T08:30:27.856Z,982.79
2023-03-31T08:31:27.961Z,982.79
2023-03-31T08:32:27.844Z,982.70
2023-03-31T08:33:27.802Z,982.73
2023-03-31T08:34:27.790Z,982.66
2023-03-31T08:35:27.778Z,982.67
2023-03-31T08:36:27.812Z,982.61
2023-03-31T08:37:27.818Z,982.56
2023-03-31T08:38:27.781Z,982.64
2023-03-31T08:39:27.748Z,982.56
2023-03-31T08:40:27.731Z,982.60
2023-03-31T08:41:27.719Z,982.60
2023-03-31T08:42:27.720Z,982.60
2023-03-31T08:43:27.716Z,982.64
2023-03-31T08:44:27.699Z,982.67
2023-03-31T08:45:27.712Z,982.65
2023-03-31T08:46:27.749Z,982.60
2023-03-31T08:47:27.712Z,982.64
2023-03-31T08:48:27.684Z,982.59
2023-03-31T08:49:27.643Z,982.61
2023-03-31T08:50:27.647Z,982.61
2023-03-31T08:51:27.605Z,982.55
2023-03-31T08:52:27.601Z,982.58
2023-03-31T08:53:27.596Z,982.56
2023-03-31T08:54:27.608Z,982.55
2023-03-31T08:55:27.585Z,982.53
2023-03-31T08:56:27.570Z,982.58
2023-03-31T08:57:27.637Z,982.55
2023-03-31T08:58:27.571Z,982.60
2023-03-31T08:59:27.554Z,982.61
2023-03-31T09:00:27.528Z,982.60
2023-03-31T09:01:27.502Z,982.55
2023-03-31T09:02:27.748Z,982.55
2023-03-31T09:03:27.568Z,982.55
2023-03-31T09:04:27.497Z,982.49
2023-03-31T09:05:27.482Z,982.50
2023-03-31T09:06:27.460Z,982.45
2023-03-31T09:07:27.434Z,982.43
2023-03-31T09:08:27.426Z,982.45
2023-03-31T09:09:27.421Z,982.39
2023-03-31T09:10:27.557Z,982.39
2023-03-31T09:11:27.398Z,982.35
2023-03-31T09:12:27.393Z,982.33
2023-03-31T09:13:27.369Z,982.33
2023-03-31T09:14:27.363Z,982.24
2023-03-31T09:15:27.374Z,982.32
2023-03-31T09:16:27.392Z,982.27
2023-03-31T09:17:27.353Z,982.27
2023-03-31T09:18:27.368Z,982.22
2023-03-31T09:19:27.311Z,982.22
2023-03-31T09:20:27.311Z,982.21
2023-03-31T09:21:27.311Z,982.16
2023-03-31T09:22:27.311Z,982.04
2023-03-31T09:23:27.278Z,982.15
2023-03-31T09:24:27.267Z,982.10
2023-03-31T09:25:27.314Z,982.10
2023-03-31T09:26:27.248Z,982.06
2023-03-31T09:27:27.231Z,982.13
2023-03-31T09:28:27.232Z,982.11
2023-03-31T09:29:27.242Z,982.13
2023-03-31T09:30:27.212Z,982.13
2023-03-31T09:31:27.254Z,982.12
2023-03-31T09:32:27.187Z,982.12
2023-03-31T09:33:27.154Z,982.02
2023-03-31T09:34:27.155Z,982.07
2023-03-31T09:35:27.194Z,982.07
2023-03-31T09:36:27.151Z,982.03
2023-03-31T09:37:27.136Z,982.05
2023-03-31T09:38:27.108Z,982.05
2023-03-31T09:39:27.112Z,982.06
2023-03-31T09:40:27.157Z,982.02
2023-03-31T09:41:27.074Z,982.03
2023-03-31T09:42:27.095Z,982.06
2023-03-31T09:43:27.083Z,982.07
2023-03-31T09:44:27.058Z,982.05
2023-03-31T09:45:27.027Z,982.08
2023-03-31T09:46:27.094Z,982.07
2023-03-31T09:47:27.014Z,982.10
2023-03-31T09:48:26.991Z,982.08
2023-03-31T09:49:26.996Z,982.07
2023-03-31T09:50:27.002Z,982.05
2023-03-31T09:51:26.981Z,982.12
2023-03-31T09:52:27.135Z,981.94
2023-03-31T09:53:26.964Z,982.00
2023-03-31T09:54:26.943Z,981.94
2023-03-31T09:55:38.921Z,981.94
2023-03-31T09:56:27.901Z,981.92
2023-03-31T09:57:27.084Z,981.94
2023-03-31T09:58:26.914Z,981.92
2023-03-31T09:59:26.861Z,981.92
2023-03-31T10:00:26.853Z,981.85
2023-03-31T10:01:26.903Z,981.86
2023-03-31T10:02:26.991Z,981.90
2023-03-31T10:03:26.817Z,981.95
2023-03-31T10:04:26.915Z,981.81
2023-03-31T10:05:26.800Z,981.95
2023-03-31T10:06:26.805Z,981.89
2023-03-31T10:07:26.823Z,981.93
2023-03-31T10:08:26.775Z,981.88
2023-03-31T10:09:26.782Z,981.92
2023-03-31T10:10:26.741Z,981.86
2023-03-31T10:11:26.754Z,981.90
2023-03-31T10:12:26.721Z,981.92
2023-03-31T10:13:26.715Z,981.96
2023-03-31T10:14:26.711Z,981.95
2023-03-31T10:15:26.701Z,981.95
2023-03-31T10:16:26.858Z,981.96
2023-03-31T10:17:26.712Z,981.87
2023-03-31T10:18:26.692Z,981.92
2023-03-31T10:19:26.680Z,981.94
2023-03-31T10:20:26.645Z,981.91
2023-03-31T10:21:26.618Z,981.92
2023-03-31T10:22:26.620Z,982.00
2023-03-31T10:23:27.131Z,982.02
2023-03-31T10:24:26.598Z,981.97
2023-03-31T10:25:26.578Z,981.92
2023-03-31T10:26:26.567Z,981.89
2023-03-31T10:27:26.584Z,981.90
2023-03-31T10:28:26.537Z,981.86
2023-03-31T10:29:26.544Z,981.92
2023-03-31T10:30:26.549Z,981.82
2023-03-31T10:31:26.565Z,981.85
2023-03-31T10:32:26.556Z,981.76
2023-03-31T10:33:26.494Z,981.75
2023-03-31T10:34:26.480Z,981.80
2023-03-31T10:35:26.464Z,981.80
2023-03-31T10:36:26.462Z,981.77
2023-03-31T10:37:26.550Z,981.76
2023-03-31T10:38:26.450Z,981.73
2023-03-31T10:39:26.417Z,981.71
2023-03-31T10:40:26.410Z,981.69
2023-03-31T10:41:26.460Z,981.66
2023-03-31T10:42:26.444Z,981.71
2023-03-31T10:43:26.403Z,981.69
2023-03-31T10:44:26.351Z,981.62
2023-03-31T10:45:35.684Z,981.63
2023-03-31T10:46:27.415Z,981.72
2023-03-31T10:47:26.343Z,981.69
2023-03-31T10:48:26.374Z,981.67
2023-03-31T10:49:26.335Z,981.68
2023-03-31T10:50:26.289Z,981.75
2023-03-31T10:51:26.322Z,981.78
2023-03-31T10:52:26.261Z,981.75
2023-03-31T10:53:26.253Z,981.71
2023-03-31T10:54:26.250Z,981.73
2023-03-31T10:55:26.276Z,981.70
2023-03-31T10:56:26.247Z,981.67
2023-03-31T10:57:26.262Z,981.67
2023-03-31T10:58:26.221Z,981.64
2023-03-31T10:59:26.206Z,981.61
2023-03-31T11:00:26.184Z,981.71
2023-03-31T11:01:26.185Z,981.68
2023-03-31T11:02:26.244Z,981.67
2023-03-31T11:03:26.235Z,981.72
2023-03-31T11:04:26.140Z,981.58
2023-03-31T11:05:26.123Z,981.65
2023-03-31T11:06:26.108Z,981.68
2023-03-31T11:07:26.130Z,981.61
2023-03-31T11:08:26.104Z,981.62
2023-03-31T11:09:26.076Z,981.62
2023-03-31T11:10:26.101Z,981.57
2023-03-31T11:11:26.062Z,981.55
2023-03-31T11:12:26.060Z,981.48
2023-03-31T11:13:26.118Z,981.46
2023-03-31T11:14:26.078Z,981.32
2023-03-31T11:15:26.042Z,981.44
2023-03-31T11:16:26.109Z,981.47
2023-03-31T11:17:26.085Z,981.51
2023-03-31T11:18:26.009Z,981.46
2023-03-31T11:19:26.012Z,981.47
2023-03-31T11:20:25.956Z,981.43
2023-03-31T11:21:25.947Z,981.41
2023-03-31T11:22:25.958Z,981.43
2023-03-31T11:23:25.931Z,981.39
2023-03-31T11:24:25.917Z,981.38
2023-03-31T11:25:25.913Z,981.38
2023-03-31T11:26:25.894Z,981.48
2023-03-31T11:27:25.901Z,981.40
2023-03-31T11:28:25.878Z,981.43
2023-03-31T11:29:25.861Z,981.45
2023-03-31T11:30:25.863Z,981.37
2023-03-31T11:31:25.907Z,981.35
2023-03-31T11:32:25.871Z,981.34
2023-03-31T11:33:25.807Z,981.28
2023-03-31T11:34:25.828Z,981.29
2023-03-31T11:35:25.811Z,981.25
2023-03-31T11:36:25.785Z,981.31
2023-03-31T11:37:25.798Z,981.26
2023-03-31T11:38:25.756Z,981.23
2023-03-31T11:39:25.770Z,981.19
2023-03-31T11:40:25.740Z,981.21
2023-03-31T11:41:25.783Z,981.15
2023-03-31T11:42:25.718Z,981.18
2023-03-31T11:43:25.720Z,981.18
2023-03-31T11:44:25.700Z,981.19
2023-03-31T11:45:25.686Z,981.22
2023-03-31T11:46:25.726Z,981.22
2023-03-31T11:47:25.698Z,981.16
2023-03-31T11:48:25.640Z,981.21
2023-03-31T11:49:25.657Z,981.19
2023-03-31T11:50:25.664Z,981.21
2023-03-31T11:51:25.617Z,981.08
2023-03-31T11:52:25.623Z,981.11
2023-03-31T11:53:25.627Z,981.09
2023-03-31T11:54:25.602Z,981.30
2023-03-31T11:55:25.571Z,981.17
2023-03-31T11:56:25.559Z,981.14
2023-03-31T11:57:25.599Z,981.31
2023-03-31T11:58:25.544Z,981.50
2023-03-31T11:59:25.549Z,981.46
2023-03-31T12:00:25.564Z,981.34
2023-03-31T12:01:25.510Z,981.37
2023-03-31T12:02:25.587Z,981.52
2023-03-31T12:03:25.601Z,981.51
2023-03-31T12:04:25.481Z,981.46
2023-03-31T12:05:25.491Z,981.68
2023-03-31T12:06:25.496Z,981.74
2023-03-31T12:07:25.445Z,981.65
2023-03-31T12:08:25.436Z,981.71
2023-03-31T12:09:25.441Z,981.65
2023-03-31T12:10:25.414Z,981.56
2023-03-31T12:11:25.403Z,981.50
2023-03-31T12:12:25.399Z,981.37
2023-03-31T12:13:25.373Z,981.42
2023-03-31T12:14:25.372Z,981.25
2023-03-31T12:15:25.394Z,981.18
2023-03-31T12:16:25.405Z,981.11
2023-03-31T12:17:25.371Z,981.12
2023-03-31T12:18:25.323Z,981.12
2023-03-31T12:19:25.317Z,981.11
2023-03-31T12:20:25.322Z,981.07
2023-03-31T12:21:25.319Z,981.06
2023-03-31T12:22:25.307Z,981.01
2023-03-31T12:23:25.292Z,981.00
2023-03-31T12:24:25.255Z,980.96
2023-03-31T12:25:25.245Z,980.99
2023-03-31T12:26:25.229Z,981.02
2023-03-31T12:27:25.251Z,981.03
2023-03-31T12:28:25.294Z,981.03